Nichiryu Maru — JG5632 — position and weather

sailwx.info

Track history (hours):
 
Tides and Currents Weather Stations Pressure Air Temp Water Temp Dewpoint Dewpoint Depression Visibility Wind Speed Wind Dir Waves Ship Positions

Nichiryu Maru

Last reported at 2014-Dec-19 08:31 UTC. Time now 2014-Dec-20 07:15 UTC.
Position N 34°33' E 134°47'.

Length 158 m; draft 6.5 m.

Type: Cargo ship. MMSI: 43100939.

Date/timePositionNaut miles runAvg speedWind from/ knotsBaromVisibWave heightAir tempDewpointWater temp
2014-Dec-19 08:31N 34°33' E 134°47'1818.5
2014-Dec-19 07:33N 34°36' E 135°09'6 5.5
2014-Dec-19 06:23N 34°41' E 135°13'0 0.0
2014-Dec-19 05:29N 34°41' E 135°13'0 0.0
2014-Dec-19 04:29N 34°41' E 135°13'6 6.1
2014-Dec-19 03:33N 34°35' E 135°15'1918.9
2014-Dec-19 02:33N 34°20' E 135°01'1918.7
2014-Dec-19 01:33N 34°01' E 134°59'24616.3
2014-Dec-18 10:31N 35°12' E 139°45'9 9.5
2014-Dec-18 09:33N 35°19' E 139°39'0 0.0
2014-Dec-18 08:21N 35°19' E 139°39'0 0.0
2014-Dec-18 07:33N 35°19' E 139°39'0 0.0
2014-Dec-18 05:33N 35°19' E 139°39'0 0.0
2014-Dec-18 04:27N 35°19' E 139°39'4 4.8
2014-Dec-18 03:33N 35°18' E 139°44'  
2014-Dec-15 11:19N 35°05' E 139°40'1215.5
2014-Dec-15 10:33N 35°16' E 139°46'6 5.8
2014-Dec-15 09:27N 35°19' E 139°39'0 0.0
2014-Dec-15 08:27N 35°19' E 139°39'0 0.0
2014-Dec-15 07:33N 35°19' E 139°39'0 0.0
2014-Dec-15 06:03N 35°19' E 139°39'0 0.0
2014-Dec-15 05:30N 35°19' E 139°39'0 0.0
2014-Dec-15 04:33N 35°19' E 139°39'0 0.0
2014-Dec-15 03:27N 35°19' E 139°39'0 0.0
2014-Dec-15 02:27N 35°19' E 139°39'0 0.0
2014-Dec-15 01:27N 35°19' E 139°39'0 0.0
2014-Dec-14 23:21N 35°19' E 139°39'6 6.9
2014-Dec-14 22:33N 35°17' E 139°45'  
2014-Dec-12 08:12N 34°34' E 134°49'1116.9
2014-Dec-12 07:33N 34°37' E 135°02'1110.6
2014-Dec-12 06:33N 34°41' E 135°14'0 0.4
2014-Dec-12 05:28N 34°41' E 135°13'0 0.0
2014-Dec-12 04:28N 34°41' E 135°13'0 0.4
2014-Dec-12 03:33N 34°41' E 135°14'1515.6
2014-Dec-12 02:33N 34°26' E 135°08'1919.4
2014-Dec-12 01:33N 34°08' E 135°00'23415.6
2014-Dec-11 10:33N 35°02' E 139°37'1515.3
2014-Dec-11 09:33N 35°16' E 139°46'6 6.0
2014-Dec-11 08:30N 35°19' E 139°39'0 0.0
2014-Dec-11 07:33N 35°19' E 139°39'0 0.0
2014-Dec-11 06:24N 35°19' E 139°39'0 0.0
2014-Dec-11 05:12N 35°19' E 139°39'0 0.0
2014-Dec-11 04:24N 35°19' E 139°39'5 5.6
2014-Dec-11 03:33N 35°18' E 139°45'1111.3
2014-Dec-11 02:33N 35°07' E 139°46'  
Track history (hours):
 
Tides and Currents Weather Stations Pressure Air Temp Water Temp Dewpoint Dewpoint Depression Visibility Wind Speed Wind Dir Waves Ship Positions

Nichiryu Maru

Last reported at 2014-Dec-19 08:31 UTC. Time now 2014-Dec-20 07:15 UTC.
Position N 34°33' E 134°47'.

Length 158 m; draft 6.5 m.

Type: Cargo ship. MMSI: 43100939.

Date/timePositionNaut miles runAvg speedWind from/ knotsBaromVisibWave heightAir tempDewpointWater temp
2014-Dec-19 08:31N 34°33' E 134°47'1818.5
2014-Dec-19 07:33N 34°36' E 135°09'6 5.5
2014-Dec-19 06:23N 34°41' E 135°13'0 0.0
2014-Dec-19 05:29N 34°41' E 135°13'0 0.0
2014-Dec-19 04:29N 34°41' E 135°13'6 6.1
2014-Dec-19 03:33N 34°35' E 135°15'1918.9
2014-Dec-19 02:33N 34°20' E 135°01'1918.7
2014-Dec-19 01:33N 34°01' E 134°59'24616.3
2014-Dec-18 10:31N 35°12' E 139°45'9 9.5
2014-Dec-18 09:33N 35°19' E 139°39'0 0.0
2014-Dec-18 08:21N 35°19' E 139°39'0 0.0
2014-Dec-18 07:33N 35°19' E 139°39'0 0.0
2014-Dec-18 05:33N 35°19' E 139°39'0 0.0
2014-Dec-18 04:27N 35°19' E 139°39'4 4.8
2014-Dec-18 03:33N 35°18' E 139°44'  
2014-Dec-15 11:19N 35°05' E 139°40'1215.5
2014-Dec-15 10:33N 35°16' E 139°46'6 5.8
2014-Dec-15 09:27N 35°19' E 139°39'0 0.0
2014-Dec-15 08:27N 35°19' E 139°39'0 0.0
2014-Dec-15 07:33N 35°19' E 139°39'0 0.0
2014-Dec-15 06:03N 35°19' E 139°39'0 0.0
2014-Dec-15 05:30N 35°19' E 139°39'0 0.0
2014-Dec-15 04:33N 35°19' E 139°39'0 0.0
2014-Dec-15 03:27N 35°19' E 139°39'0 0.0
2014-Dec-15 02:27N 35°19' E 139°39'0 0.0
2014-Dec-15 01:27N 35°19' E 139°39'0 0.0
2014-Dec-14 23:21N 35°19' E 139°39'6 6.9
2014-Dec-14 22:33N 35°17' E 139°45'  
2014-Dec-12 08:12N 34°34' E 134°49'1116.9
2014-Dec-12 07:33N 34°37' E 135°02'1110.6
2014-Dec-12 06:33N 34°41' E 135°14'0 0.4
2014-Dec-12 05:28N 34°41' E 135°13'0 0.0
2014-Dec-12 04:28N 34°41' E 135°13'0 0.4
2014-Dec-12 03:33N 34°41' E 135°14'1515.6
2014-Dec-12 02:33N 34°26' E 135°08'1919.4
2014-Dec-12 01:33N 34°08' E 135°00'23415.6
2014-Dec-11 10:33N 35°02' E 139°37'1515.3
2014-Dec-11 09:33N 35°16' E 139°46'6 6.0
2014-Dec-11 08:30N 35°19' E 139°39'0 0.0
2014-Dec-11 07:33N 35°19' E 139°39'0 0.0
2014-Dec-11 06:24N 35°19' E 139°39'0 0.0
2014-Dec-11 05:12N 35°19' E 139°39'0 0.0
2014-Dec-11 04:24N 35°19' E 139°39'5 5.6
2014-Dec-11 03:33N 35°18' E 139°45'1111.3
2014-Dec-11 02:33N 35°07' E 139°46'  

Dump ship's entire track history